Williamstown, MA (01267)

1:16 PM EDT on March 25, 2017 (GMT -0400)
North Williamstown | | Change Station

Elev 636 ft 42.73 °N, 73.20 °W | Updated 14 seconds ago

Overcast
Overcast
38.5 °F
Feels Like 38 °F
N
2.7
Wind Variable Wind from WNW
Gusts 4.9 mph

Today
High -- | Low -- °F
--% Chance of Precip.
Yesterday
High -- | Low -- °F
Precip. -- in
Pressure 30.28 in
Visibility 2.0 miles
Clouds Overcast 500 ft
Windchill 38 °F
Dew Point 29 °F
Humidity 68%
Rainfall 0.05 in
Snow Depth Not available.
6:46 AM 7:11 PM
Waning Crescent, 7% visible
METAR KAQW 251652Z AUTO 24005KT 2SM -RA BR OVC005 02/01 A3026 RMK AO2 CIG 004V010 SLP253 P0002 T00170011
Pressure 30.28 in
Visibility 2.0 miles
Clouds Overcast 500 ft
Windchill 38 °F
Dew Point 29 °F
Humidity 68%
Rainfall 0.05 in
Snow Depth Not available.
6:46 AM 7:11 PM
Waning Crescent, 7% visible
METAR KAQW 251652Z AUTO 24005KT 2SM -RA BR OVC005 02/01 A3026 RMK AO2 CIG 004V010 SLP253 P0002 T00170011

Get Severe Weather Alerts

Thanks for signing up!

Be on the lookout for a verification email in your inbox.

You'll start receiving the daily forecast at 8 AM.

×

10-Day Weather Forecast

Almanac

Astronomy

Mar. 25, 2017 Rise Set
Actual Time
Civil Twilight
Nautical Twilight
Astronomical Twilight
Moon
Length of Visible Light
Length of Day
Tomorrow will be .
, % of the Moon is Illuminated

Today's Extremes

State Highs State Lows

Community

WunderPhotos

Upload Photos

1,962,540 photos uploaded!

WunderBlog® & News

Nearby

Air Quality

  Air Quality AQ Index Pollutant
Not available.

Snow Depth

Station Depth Elevation

Earthquake Activity

City Distance Mag. Time & Date
Minimum magnitude displayed is 2.5.

Earthquake Activity

City Distance Mag. Time & Date
Minimum magnitude displayed is 2.5.

Coastal Water Temperatures

Place Temperature

Stations

Nearby Weather Stations

Station Location Temp. Windchill Dew Point Humidity Wind Precip. Elev Updated Type
                   

Watches & Warnings

There are currently no watches in effect.